Lakemont, Georgia
Current Conditions -  °F | °C
As of 10:55 AM on Thursday 27 Nov 2014 (Local Time) from KTOC Reporting Station
Scattered Clouds Scattered Clouds  
Wind Chill: 43°   Ceiling: Unl
Heat Index: 48°   Visibility: 10mi
Dew Point: 27°   Wind: 9mph
Humidity: 44%   Direction: 300°WNW
Pressure: 30.19"   Gusts: NA
Location:  34.79°N, 83.42°W
Report Text: KTOC 271555Z AUTO 30008KT 10SM SCT048 09/M03 A3019 RMK AO2 T00871030
Loading
Personal Weather Stations






























Interactive Weather Map New forecast layout! Learn more

10-Day Weather Forecast

Advertisements
Track Severe Weather on mobile